sensor_id;sensor_type;location;lat;lon;timestamp;pressure;altitude;pressure_sealevel;temperature;humidity
54592;BME280;40488;48.558;18.150;2022-08-05T00:00:13;99533.19;;;21.74;57.26
54592;BME280;40488;48.558;18.150;2022-08-05T00:02:43;99544.34;;;21.76;56.93
54592;BME280;40488;48.558;18.150;2022-08-05T00:05:18;99553.25;;;21.70;57.21
54592;BME280;40488;48.558;18.150;2022-08-05T00:08:07;99538.13;;;21.61;57.83
54592;BME280;40488;48.558;18.150;2022-08-05T00:10:56;99539.81;;;21.44;58.69
54592;BME280;40488;48.558;18.150;2022-08-05T00:13:27;99534.75;;;21.41;58.43
54592;BME280;40488;48.558;18.150;2022-08-05T00:16:05;99530.19;;;21.46;58.51
54592;BME280;40488;48.558;18.150;2022-08-05T00:18:36;99536.94;;;21.50;58.51
54592;BME280;40488;48.558;18.150;2022-08-05T00:21:04;99533.63;;;21.46;58.27
54592;BME280;40488;48.558;18.150;2022-08-05T00:23:34;99534.50;;;21.47;58.33
54592;BME280;40488;48.558;18.150;2022-08-05T00:26:13;99539.69;;;21.47;58.29
54592;BME280;40488;48.558;18.150;2022-08-05T00:28:42;99539.53;;;21.50;57.99
54592;BME280;40488;48.558;18.150;2022-08-05T00:31:11;99528.84;;;21.56;57.86
54592;BME280;40488;48.558;18.150;2022-08-05T00:33:41;99541.00;;;21.55;57.77
54592;BME280;40488;48.558;18.150;2022-08-05T00:36:30;99531.44;;;21.56;57.47
54592;BME280;40488;48.558;18.150;2022-08-05T00:39:18;99536.72;;;21.54;57.26
54592;BME280;40488;48.558;18.150;2022-08-05T00:41:50;99540.44;;;21.49;57.12
54592;BME280;40488;48.558;18.150;2022-08-05T00:44:21;99534.50;;;21.47;57.07
54592;BME280;40488;48.558;18.150;2022-08-05T00:46:57;99524.94;;;21.47;57.30
54592;BME280;40488;48.558;18.150;2022-08-05T00:49:31;99525.94;;;21.45;57.23
54592;BME280;40488;48.558;18.150;2022-08-05T00:52:18;99522.56;;;21.43;57.22
54592;BME280;40488;48.558;18.150;2022-08-05T00:54:55;99521.22;;;21.34;57.37
54592;BME280;40488;48.558;18.150;2022-08-05T00:57:24;99519.75;;;21.28;57.39
54592;BME280;40488;48.558;18.150;2022-08-05T01:00:12;99520.75;;;21.26;57.36
54592;BME280;40488;48.558;18.150;2022-08-05T01:02:42;99525.13;;;21.25;57.46
54592;BME280;40488;48.558;18.150;2022-08-05T01:05:12;99525.13;;;21.25;57.41
54592;BME280;40488;48.558;18.150;2022-08-05T01:07:41;99522.03;;;21.17;58.17
54592;BME280;40488;48.558;18.150;2022-08-05T01:10:30;99523.00;;;21.15;57.95
54592;BME280;40488;48.558;18.150;2022-08-05T01:13:06;99519.09;;;21.06;58.10
54592;BME280;40488;48.558;18.150;2022-08-05T01:15:40;99514.00;;;21.03;58.22
54592;BME280;40488;48.558;18.150;2022-08-05T01:18:14;99516.34;;;21.09;57.99
54592;BME280;40488;48.558;18.150;2022-08-05T01:20:49;99518.25;;;21.04;58.30
54592;BME280;40488;48.558;18.150;2022-08-05T01:23:24;99512.31;;;21.02;58.55
54592;BME280;40488;48.558;18.150;2022-08-05T01:28:45;99507.63;;;20.92;59.05
54592;BME280;40488;48.558;18.150;2022-08-05T01:31:21;99518.22;;;20.87;59.11
54592;BME280;40488;48.558;18.150;2022-08-05T01:33:54;99514.69;;;20.88;59.25
54592;BME280;40488;48.558;18.150;2022-08-05T01:36:25;99508.72;;;20.86;59.35
54592;BME280;40488;48.558;18.150;2022-08-05T01:38:56;99524.22;;;20.88;59.34
54592;BME280;40488;48.558;18.150;2022-08-05T01:41:29;99511.97;;;20.91;59.67
54592;BME280;40488;48.558;18.150;2022-08-05T01:44:01;99515.75;;;20.84;59.74
54592;BME280;40488;48.558;18.150;2022-08-05T01:46:36;99518.81;;;20.73;60.50
54592;BME280;40488;48.558;18.150;2022-08-05T01:49:14;99514.59;;;20.71;60.41
54592;BME280;40488;48.558;18.150;2022-08-05T01:51:51;99517.06;;;20.74;60.25
54592;BME280;40488;48.558;18.150;2022-08-05T01:54:21;99511.88;;;20.74;59.91
54592;BME280;40488;48.558;18.150;2022-08-05T01:56:53;99508.38;;;20.75;59.97
54592;BME280;40488;48.558;18.150;2022-08-05T01:59:44;99503.13;;;20.77;60.37
54592;BME280;40488;48.558;18.150;2022-08-05T02:02:14;99510.22;;;20.73;60.36
54592;BME280;40488;48.558;18.150;2022-08-05T02:04:44;99504.16;;;20.73;60.40
54592;BME280;40488;48.558;18.150;2022-08-05T02:07:15;99502.59;;;20.68;60.05
54592;BME280;40488;48.558;18.150;2022-08-05T02:09:48;99502.69;;;20.67;60.34
54592;BME280;40488;48.558;18.150;2022-08-05T02:12:17;99506.81;;;20.71;60.63
54592;BME280;40488;48.558;18.150;2022-08-05T02:14:55;99504.44;;;20.66;61.09
54592;BME280;40488;48.558;18.150;2022-08-05T02:17:31;99502.44;;;20.53;61.67
54592;BME280;40488;48.558;18.150;2022-08-05T02:20:24;99504.53;;;20.45;61.66
54592;BME280;40488;48.558;18.150;2022-08-05T02:22:55;99502.13;;;20.40;61.54
54592;BME280;40488;48.558;18.150;2022-08-05T02:25:27;99496.09;;;20.40;61.26
54592;BME280;40488;48.558;18.150;2022-08-05T02:27:59;99501.03;;;20.46;60.69
54592;BME280;40488;48.558;18.150;2022-08-05T02:30:38;99500.41;;;20.41;60.93
54592;BME280;40488;48.558;18.150;2022-08-05T02:33:20;99500.53;;;20.38;60.92
54592;BME280;40488;48.558;18.150;2022-08-05T02:36:05;99501.16;;;20.43;60.65
54592;BME280;40488;48.558;18.150;2022-08-05T02:38:39;99506.34;;;20.43;60.68
54592;BME280;40488;48.558;18.150;2022-08-05T02:41:18;99496.84;;;20.43;60.24
54592;BME280;40488;48.558;18.150;2022-08-05T02:43:49;99498.69;;;20.40;60.31
54592;BME280;40488;48.558;18.150;2022-08-05T02:46:34;99492.75;;;20.38;60.27
54592;BME280;40488;48.558;18.150;2022-08-05T02:49:23;99501.44;;;20.37;60.32
54592;BME280;40488;48.558;18.150;2022-08-05T02:52:04;99488.59;;;20.34;60.65
54592;BME280;40488;48.558;18.150;2022-08-05T02:54:34;99503.53;;;20.29;60.64
54592;BME280;40488;48.558;18.150;2022-08-05T02:57:09;99493.28;;;20.26;60.71
54592;BME280;40488;48.558;18.150;2022-08-05T02:59:58;99499.22;;;20.28;60.75
54592;BME280;40488;48.558;18.150;2022-08-05T03:02:30;99488.25;;;20.21;61.07
54592;BME280;40488;48.558;18.150;2022-08-05T03:04:59;99487.41;;;20.21;61.00
54592;BME280;40488;48.558;18.150;2022-08-05T03:07:29;99489.91;;;20.24;60.89
54592;BME280;40488;48.558;18.150;2022-08-05T03:10:18;99492.59;;;20.22;60.70
54592;BME280;40488;48.558;18.150;2022-08-05T03:12:51;99498.81;;;20.17;61.09
54592;BME280;40488;48.558;18.150;2022-08-05T03:15:19;99489.50;;;20.13;61.27
54592;BME280;40488;48.558;18.150;2022-08-05T03:17:52;99500.00;;;20.10;62.02
54592;BME280;40488;48.558;18.150;2022-08-05T03:20:25;99496.94;;;20.00;62.13
54592;BME280;40488;48.558;18.150;2022-08-05T03:22:53;99495.13;;;20.02;61.94
54592;BME280;40488;48.558;18.150;2022-08-05T03:25:24;99502.72;;;20.06;61.54
54592;BME280;40488;48.558;18.150;2022-08-05T03:28:13;99489.81;;;20.05;61.58
54592;BME280;40488;48.558;18.150;2022-08-05T03:30:46;99495.00;;;20.05;61.89
54592;BME280;40488;48.558;18.150;2022-08-05T03:33:18;99494.09;;;20.06;61.64
54592;BME280;40488;48.558;18.150;2022-08-05T03:35:49;99487.03;;;20.10;61.50
54592;BME280;40488;48.558;18.150;2022-08-05T03:38:18;99496.63;;;20.08;61.82
54592;BME280;40488;48.558;18.150;2022-08-05T03:41:02;99500.25;;;20.03;61.88
54592;BME280;40488;48.558;18.150;2022-08-05T03:43:36;99494.94;;;20.06;61.55
54592;BME280;40488;48.558;18.150;2022-08-05T03:46:25;99500.00;;;20.10;61.32
54592;BME280;40488;48.558;18.150;2022-08-05T03:48:59;99496.50;;;20.11;61.53
54592;BME280;40488;48.558;18.150;2022-08-05T03:51:30;99488.59;;;20.14;61.48
54592;BME280;40488;48.558;18.150;2022-08-05T03:54:20;99490.28;;;20.15;61.95
54592;BME280;40488;48.558;18.150;2022-08-05T03:57:11;99495.47;;;20.15;61.63
54592;BME280;40488;48.558;18.150;2022-08-05T03:59:44;99485.09;;;20.15;61.54
54592;BME280;40488;48.558;18.150;2022-08-05T04:02:21;99488.34;;;20.20;62.04
54592;BME280;40488;48.558;18.150;2022-08-05T04:05:13;99496.16;;;20.18;61.77
54592;BME280;40488;48.558;18.150;2022-08-05T04:07:42;99490.00;;;20.21;61.84
54592;BME280;40488;48.558;18.150;2022-08-05T04:10:25;99489.84;;;20.25;62.22
54592;BME280;40488;48.558;18.150;2022-08-05T04:13:03;99489.66;;;20.30;61.97
54592;BME280;40488;48.558;18.150;2022-08-05T04:15:32;99493.88;;;20.32;62.10
54592;BME280;40488;48.558;18.150;2022-08-05T04:18:03;99493.72;;;20.35;61.85
54592;BME280;40488;48.558;18.150;2022-08-05T04:20:34;99496.97;;;20.40;61.65
54592;BME280;40488;48.558;18.150;2022-08-05T04:23:07;99490.66;;;20.46;62.02
54592;BME280;40488;48.558;18.150;2022-08-05T04:25:41;99493.91;;;20.51;62.34
54592;BME280;40488;48.558;18.150;2022-08-05T04:28:27;99494.59;;;20.54;62.30
54592;BME280;40488;48.558;18.150;2022-08-05T04:30:58;99491.66;;;20.62;62.53
54592;BME280;40488;48.558;18.150;2022-08-05T04:33:27;99497.41;;;20.68;62.20
54592;BME280;40488;48.558;18.150;2022-08-05T04:36:17;99489.28;;;20.76;62.48
54592;BME280;40488;48.558;18.150;2022-08-05T04:39:06;99490.00;;;20.80;62.84
54592;BME280;40488;48.558;18.150;2022-08-05T04:41:37;99483.69;;;20.85;62.30
54592;BME280;40488;48.558;18.150;2022-08-05T04:44:07;99477.13;;;20.97;61.92
54592;BME280;40488;48.558;18.150;2022-08-05T04:46:36;99485.19;;;21.09;61.86
54592;BME280;40488;48.558;18.150;2022-08-05T04:49:04;99475.16;;;21.20;62.09
54592;BME280;40488;48.558;18.150;2022-08-05T04:51:43;99476.19;;;21.35;62.06
54592;BME280;40488;48.558;18.150;2022-08-05T04:54:11;99475.66;;;21.46;61.90
54592;BME280;40488;48.558;18.150;2022-08-05T04:56:41;99469.72;;;21.61;61.99
54592;BME280;40488;48.558;18.150;2022-08-05T04:59:09;99465.06;;;21.67;61.70
54592;BME280;40488;48.558;18.150;2022-08-05T05:01:50;99476.00;;;21.74;61.54
54592;BME280;40488;48.558;18.150;2022-08-05T05:04:39;99479.91;;;21.82;61.24
54592;BME280;40488;48.558;18.150;2022-08-05T05:07:15;99468.06;;;21.94;60.14
54592;BME280;40488;48.558;18.150;2022-08-05T05:09:43;99469.16;;;22.07;59.49
54592;BME280;40488;48.558;18.150;2022-08-05T05:12:12;99476.34;;;22.19;58.94
54592;BME280;40488;48.558;18.150;2022-08-05T05:14:41;99471.25;;;22.33;58.54
54592;BME280;40488;48.558;18.150;2022-08-05T05:17:17;99470.44;;;22.48;58.15
54592;BME280;40488;48.558;18.150;2022-08-05T05:19:52;99473.22;;;22.62;57.24
54592;BME280;40488;48.558;18.150;2022-08-05T05:22:24;99472.22;;;22.65;56.35
54592;BME280;40488;48.558;18.150;2022-08-05T05:24:52;99470.00;;;22.73;56.34
54592;BME280;40488;48.558;18.150;2022-08-05T05:27:25;99470.19;;;22.86;56.01
54592;BME280;40488;48.558;18.150;2022-08-05T05:30:14;99471.38;;;22.96;55.82
54592;BME280;40488;48.558;18.150;2022-08-05T05:33:00;99462.97;;;23.06;55.78
54592;BME280;40488;48.558;18.150;2022-08-05T05:35:43;99464.84;;;23.20;55.36
54592;BME280;40488;48.558;18.150;2022-08-05T05:38:15;99466.81;;;23.30;55.18
54592;BME280;40488;48.558;18.150;2022-08-05T05:40:53;99481.91;;;23.41;54.74
54592;BME280;40488;48.558;18.150;2022-08-05T05:43:28;99470.03;;;23.51;54.66
